| time (UTC) | temp C | wind direction | speed KPH | gust KPH | rain 1hr cm | rain 24hr cm | rain mn cm | humidity % | barometer mb |
| 20260510093026 | 8 | 8 | 0.0 | 0.0 | 0.00 | 0.69 | 0.00 | 94 | 1011.3 |
| 20260510091514 | 8 | 8 | 0.0 | 1.6 | 0.00 | 0.69 | 0.00 | 94 | 1011.0 |
| 20260510090024 | 9 | 55 | 0.0 | 3.2 | 0.00 | 0.69 | 0.00 | 94 | 1010.8 |
| 20260510084523 | 10 | 12 | 1.6 | 3.2 | 0.00 | 0.71 | 0.00 | 94 | 1010.8 |
| 20260510083007 | 10 | 77 | 0.0 | 6.4 | 0.00 | 0.71 | 0.00 | 95 | 1010.4 |
| 20260510081512 | 10 | 16 | 0.0 | 6.4 | 0.00 | 0.76 | 0.00 | 95 | 1010.2 |
| 20260510080039 | 10 | 42 | 1.6 | 6.4 | 0.00 | 0.79 | 0.00 | 96 | 1010.1 |
| 20260510074526 | 10 | 311 | 0.0 | 0.0 | 0.00 | 0.81 | 0.00 | 96 | 1009.8 |
| 20260510073038 | 10 | 126 | 0.0 | 8.0 | 0.00 | 0.84 | 0.00 | 96 | 1009.6 |
| 20260510071509 | 10 | 11 | 0.0 | 0.0 | 0.00 | 0.94 | 0.00 | 95 | 1009.4 |
| 20260510070035 | 10 | 136 | 0.0 | 0.0 | 0.00 | 1.02 | 0.00 | 95 | 1009.2 |
| 20260510064520 | 10 | 136 | 0.0 | 0.0 | 0.00 | 1.12 | 0.00 | 95 | 1009.0 |
| 20260510063021 | 10 | 136 | 0.0 | 0.0 | 0.00 | 1.24 | 0.00 | 95 | 1008.8 |
| 20260510061526 | 10 | 136 | 0.0 | 0.0 | 0.00 | 1.42 | 0.00 | 95 | 1008.7 |
| 20260510060021 | 10 | 136 | 0.0 | 0.0 | 0.00 | 1.47 | 0.00 | 95 | 1008.7 |
| 20260510054518 | 10 | 75 | 0.0 | 0.0 | 0.00 | 1.52 | 0.00 | 95 | 1008.5 |
| 20260510053020 | 10 | 8 | 0.0 | 0.0 | 0.00 | 1.55 | 0.00 | 95 | 1008.5 |
| 20260510051523 | 10 | 3 | 0.0 | 0.0 | 0.00 | 1.57 | 0.00 | 95 | 1008.7 |
| 20260510050027 | 10 | 3 | 0.0 | 0.0 | 0.00 | 1.60 | 0.00 | 94 | 1008.3 |
| 20260510044525 | 11 | 3 | 0.0 | 0.0 | 0.00 | 1.63 | 0.00 | 94 | 1008.2 |
| 20260510043016 | 11 | 24 | 0.0 | 0.0 | 0.05 | 1.65 | 0.00 | 94 | 1008.3 |
| 20260510041528 | 11 | 141 | 0.0 | 3.2 | 0.08 | 1.65 | 0.00 | 94 | 1008.3 |
| 20260510040022 | 12 | 15 | 0.0 | 0.0 | 0.08 | 1.70 | 0.00 | 94 | 1008.3 |
| 20260510034527 | 12 | 137 | 0.0 | 0.0 | 0.10 | 1.73 | 1.70 | 94 | 1008.2 |
| 20260510033031 | 12 | 283 | 0.0 | 0.0 | 0.05 | 1.68 | 1.65 | 94 | 1008.5 |
| 20260510031523 | 12 | 143 | 0.0 | 0.0 | 0.03 | 1.68 | 1.63 | 93 | 1008.0 |
| 20260510030021 | 12 | 260 | 0.0 | 0.0 | 0.03 | 1.68 | 1.63 | 93 | 1008.2 |
| 20260510024526 | 12 | 281 | 0.0 | 0.0 | 0.00 | 1.68 | 1.60 | 93 | 1008.4 |
| 20260510023026 | 12 | 281 | 0.0 | 0.0 | 0.00 | 1.70 | 1.60 | 93 | 1007.5 |
| 20260510021606 | 12 | 281 | 0.0 | 0.0 | 0.00 | 1.73 | 1.60 | 92 | 1007.5 |
| 20260510020028 | 12 | 158 | 0.0 | 0.0 | 0.00 | 1.73 | 1.60 | 92 | 1007.6 |
| 20260510014540 | 12 | 158 | 0.0 | 0.0 | 0.00 | 1.73 | 1.60 | 91 | 1007.4 |
| 20260510013028 | 12 | 158 | 0.0 | 0.0 | 0.03 | 1.75 | 1.60 | 91 | 1007.3 |
| 20260510011525 | 12 | 158 | 0.0 | 0.0 | 0.13 | 1.75 | 1.60 | 91 | 1006.8 |
| 20260510010022 | 12 | 101 | 0.0 | 1.6 | 0.38 | 1.78 | 1.60 | 90 | 1006.8 |
| 20260510004503 | 12 | 150 | 0.0 | 3.2 | 0.58 | 1.78 | 1.60 | 89 | 1007.0 |
| 20260509233003 | 18 | 203 | 1.6 | 6.4 | 0.00 | 1.30 | 1.02 | 60 | 1004.9 |
| 20260509231504 | 19 | 135 | 1.6 | 9.7 | 0.00 | 1.30 | 1.02 | 60 | 1004.8 |
| 20260509230035 | 20 | 266 | 3.2 | 11.3 | 0.00 | 1.30 | 1.02 | 57 | 1004.5 |
| 20260509224517 | 21 | 249 | 3.2 | 11.3 | 0.00 | 1.30 | 1.02 | 56 | 1004.4 |
| 20260509223026 | 21 | 137 | 3.2 | 11.3 | 0.00 | 1.30 | 1.02 | 55 | 1004.4 |
| 20260509214526 | 20 | 236 | 3.2 | 16.1 | 0.00 | 1.30 | 1.02 | 56 | 1004.4 |
| 20260509213020 | 20 | 155 | 3.2 | 16.1 | 0.00 | 1.30 | 1.02 | 57 | 1004.5 |
| 20260509211527 | 20 | 250 | 3.2 | 11.3 | 0.00 | 1.30 | 1.02 | 58 | 1004.7 |
| 20260509210024 | 20 | 257 | 3.2 | 9.7 | 0.00 | 1.30 | 1.02 | 58 | 1005.1 |
| 20260509204509 | 20 | 173 | 3.2 | 14.5 | 0.00 | 1.30 | 1.02 | 58 | 1005.1 |
| 20260509203023 | 20 | 264 | 3.2 | 12.9 | 0.00 | 1.30 | 1.02 | 57 | 1005.3 |
| 20260509201522 | 21 | 284 | 3.2 | 16.1 | 0.00 | 1.30 | 1.02 | 57 | 1005.5 |
| 20260509200026 | 21 | 273 | 4.8 | 9.7 | 0.00 | 1.32 | 1.02 | 55 | 1005.8 |
| 20260509190025 | 21 | 143 | 1.6 | 9.7 | 0.00 | 1.42 | 1.02 | 59 | 1006.4 |
| 20260509184527 | 21 | 305 | 3.2 | 14.5 | 0.00 | 1.42 | 1.02 | 61 | 1006.5 |
| 20260509183026 | 21 | 288 | 3.2 | 11.3 | 0.00 | 1.45 | 1.02 | 64 | 1006.6 |
| 20260509181525 | 20 | 217 | 1.6 | 8.0 | 0.00 | 1.47 | 1.02 | 65 | 1006.6 |
| 20260509180020 | 20 | 284 | 3.2 | 19.3 | 0.00 | 1.47 | 1.02 | 65 | 1006.8 |
| 20260509174524 | 19 | 272 | 1.6 | 14.5 | 0.00 | 1.47 | 1.02 | 71 | 1007.0 |
| 20260509173031 | 18 | 238 | 1.6 | 14.5 | 0.00 | 1.47 | 1.02 | 69 | 1006.8 |
| 20260509171531 | 18 | 276 | 1.6 | 8.0 | 0.00 | 1.47 | 1.02 | 70 | 1007.0 |
| 20260509170026 | 18 | 150 | 1.6 | 9.7 | 0.00 | 1.47 | 1.02 | 76 | 1007.2 |
| 20260509164527 | 18 | 237 | 1.6 | 8.0 | 0.00 | 1.52 | 1.02 | 74 | 1007.3 |
| 20260509161529 | 17 | 303 | 1.6 | 8.0 | 0.00 | 1.52 | 1.02 | 79 | 1007.2 |
| 20260509160034 | 16 | 225 | 1.6 | 4.8 | 0.00 | 1.52 | 1.02 | 84 | 1007.3 |
| 20260509154528 | 15 | 309 | 1.6 | 6.4 | 0.00 | 1.52 | 1.02 | 85 | 1007.3 |
| 20260509153008 | 15 | 273 | 1.6 | 4.8 | 0.00 | 1.52 | 1.02 | 86 | 1007.3 |
| 20260509151507 | 15 | 195 | 1.6 | 6.4 | 0.00 | 1.52 | 1.02 | 87 | 1007.2 |
| 20260509150008 | 14 | 215 | 1.6 | 9.7 | 0.00 | 1.52 | 1.02 | 90 | 1007.0 |
| 20260509144513 | 13 | 217 | 1.6 | 6.4 | 0.00 | 1.52 | 1.02 | 93 | 1007.0 |
| 20260509143031 | 12 | 227 | 0.0 | 11.3 | 0.00 | 1.52 | 1.02 | 93 | 1007.1 |
| 20260509141504 | 13 | 302 | 0.0 | 4.8 | 0.00 | 1.52 | 1.02 | 93 | 1007.1 |
| 20260509140008 | 12 | 97 | 0.0 | 9.7 | 0.00 | 1.52 | 1.02 | 95 | 1006.9 |
| 20260509134530 | 12 | 143 | 1.6 | 4.8 | 0.00 | 1.52 | 1.02 | 95 | 1007.0 |
| 20260509133015 | 12 | 217 | 1.6 | 4.8 | 0.00 | 1.52 | 1.02 | 95 | 1007.2 |
| 20260509131522 | 11 | 143 | 0.0 | 3.2 | 0.00 | 1.52 | 1.02 | 95 | 1007.3 |
| 20260509130024 | 11 | 264 | 0.0 | 4.8 | 0.00 | 1.52 | 1.02 | 95 | 1007.4 |
| 20260509123027 | 11 | 239 | 0.0 | 1.6 | 0.00 | 1.52 | 1.02 | 95 | 1007.6 |
| 20260509121518 | 11 | 209 | 0.0 | 1.6 | 0.00 | 1.52 | 1.02 | 95 | 1007.5 |
| 20260509120023 | 11 | 211 | 0.0 | 1.6 | 0.00 | 1.52 | 1.02 | 95 | 1007.5 |
| 20260509114526 | 10 | 196 | 0.0 | 0.0 | 0.00 | 1.52 | 1.02 | 95 | 1007.5 |
| 20260509113014 | 10 | 187 | 0.0 | 1.6 | 0.00 | 1.52 | 1.02 | 95 | 1007.4 |
| 20260509111514 | 10 | 153 | 0.0 | 1.6 | 0.00 | 1.52 | 1.02 | 95 | 1007.4 |
| 20260509110020 | 10 | 131 | 0.0 | 1.6 | 0.00 | 1.52 | 1.02 | 95 | 1007.3 |
| 20260509104522 | 10 | 153 | 0.0 | 6.4 | 0.00 | 1.52 | 1.02 | 95 | 1007.2 |
| 20260509103028 | 10 | 268 | 0.0 | 1.6 | 0.00 | 1.52 | 1.02 | 95 | 1007.2 |
| 20260509101514 | 10 | 149 | 0.0 | 1.6 | 0.00 | 1.52 | 1.02 | 95 | 1007.2 |
| 20260509100016 | 10 | 131 | 0.0 | 1.6 | 0.00 | 1.52 | 1.02 | 95 | 1007.2 |
| 20260509094520 | 10 | 110 | 0.0 | 1.6 | 0.03 | 1.52 | 1.02 | 95 | 1007.3 |